sensor_id;sensor_type;location;lat;lon;timestamp;pressure;altitude;pressure_sealevel;temperature;humidity
18678;BME280;9469;51.114;13.914;2022-11-11T00:02:25;100150.47;;;8.42;100.00
18678;BME280;9469;51.114;13.914;2022-11-11T00:07:54;100160.97;;;7.67;100.00
18678;BME280;9469;51.114;13.914;2022-11-11T00:13:22;100174.22;;;7.67;100.00
18678;BME280;9469;51.114;13.914;2022-11-11T00:18:46;100177.09;;;7.44;100.00
18678;BME280;9469;51.114;13.914;2022-11-11T00:24:24;100180.41;;;7.35;100.00
18678;BME280;9469;51.114;13.914;2022-11-11T00:30:03;100184.25;;;7.27;100.00
18678;BME280;9469;51.114;13.914;2022-11-11T00:35:27;100190.91;;;7.30;100.00
18678;BME280;9469;51.114;13.914;2022-11-11T00:41:03;100204.53;;;7.21;100.00
18678;BME280;9469;51.114;13.914;2022-11-11T00:46:30;100191.31;;;7.21;100.00
18678;BME280;9469;51.114;13.914;2022-11-11T00:52:06;100200.94;;;7.11;100.00
18678;BME280;9469;51.114;13.914;2022-11-11T00:57:30;100186.84;;;6.89;100.00
18678;BME280;9469;51.114;13.914;2022-11-11T01:02:59;100174.28;;;7.51;100.00
18678;BME280;9469;51.114;13.914;2022-11-11T01:08:24;100169.13;;;7.61;100.00
18678;BME280;9469;51.114;13.914;2022-11-11T01:13:49;100163.63;;;8.11;100.00
18678;BME280;9469;51.114;13.914;2022-11-11T01:19:16;100174.16;;;7.24;100.00
18678;BME280;9469;51.114;13.914;2022-11-11T01:24:40;100170.97;;;7.60;100.00
18678;BME280;9469;51.114;13.914;2022-11-11T01:30:06;100181.91;;;8.07;100.00
18678;BME280;9469;51.114;13.914;2022-11-11T01:35:41;100171.41;;;7.36;100.00
18678;BME280;9469;51.114;13.914;2022-11-11T01:41:06;100164.97;;;7.91;100.00
18678;BME280;9469;51.114;13.914;2022-11-11T01:46:44;100175.03;;;8.11;100.00
18678;BME280;9469;51.114;13.914;2022-11-11T01:52:15;100179.03;;;8.14;100.00
18678;BME280;9469;51.114;13.914;2022-11-11T01:57:45;100166.78;;;8.29;100.00
18678;BME280;9469;51.114;13.914;2022-11-11T02:03:12;100162.19;;;8.25;100.00
18678;BME280;9469;51.114;13.914;2022-11-11T02:08:40;100162.41;;;7.96;100.00
18678;BME280;9469;51.114;13.914;2022-11-11T02:14:24;100158.84;;;8.29;100.00
18678;BME280;9469;51.114;13.914;2022-11-11T02:20:04;100151.03;;;8.23;100.00
18678;BME280;9469;51.114;13.914;2022-11-11T02:25:33;100135.03;;;8.13;100.00
18678;BME280;9469;51.114;13.914;2022-11-11T02:31:03;100138.47;;;8.13;100.00
18678;BME280;9469;51.114;13.914;2022-11-11T02:36:27;100149.28;;;7.63;100.00
18678;BME280;9469;51.114;13.914;2022-11-11T02:41:54;100172.88;;;6.77;100.00
18678;BME280;9469;51.114;13.914;2022-11-11T02:47:21;100165.75;;;6.77;100.00
18678;BME280;9469;51.114;13.914;2022-11-11T02:52:45;100158.47;;;6.84;100.00
18678;BME280;9469;51.114;13.914;2022-11-11T02:58:12;100176.41;;;6.66;100.00
18678;BME280;9469;51.114;13.914;2022-11-11T03:03:36;100181.66;;;6.49;100.00
18678;BME280;9469;51.114;13.914;2022-11-11T03:08:59;100175.78;;;6.47;100.00
18678;BME280;9469;51.114;13.914;2022-11-11T03:14:26;100167.75;;;6.70;100.00
18678;BME280;9469;51.114;13.914;2022-11-11T03:19:50;100188.88;;;6.53;100.00
18678;BME280;9469;51.114;13.914;2022-11-11T03:25:37;100201.28;;;6.25;100.00
18678;BME280;9469;51.114;13.914;2022-11-11T03:31:04;100202.84;;;6.09;100.00
18678;BME280;9469;51.114;13.914;2022-11-11T03:36:28;100208.47;;;6.41;100.00
18678;BME280;9469;51.114;13.914;2022-11-11T03:42:12;100191.91;;;6.45;100.00
18678;BME280;9469;51.114;13.914;2022-11-11T03:47:38;100185.88;;;6.95;100.00
18678;BME280;9469;51.114;13.914;2022-11-11T03:53:02;100190.78;;;6.41;100.00
18678;BME280;9469;51.114;13.914;2022-11-11T03:58:26;100193.50;;;6.18;100.00
18678;BME280;9469;51.114;13.914;2022-11-11T04:03:52;100195.53;;;5.88;100.00
18678;BME280;9469;51.114;13.914;2022-11-11T04:09:28;100194.41;;;5.84;100.00
18678;BME280;9469;51.114;13.914;2022-11-11T04:15:05;100205.19;;;5.82;100.00
18678;BME280;9469;51.114;13.914;2022-11-11T04:20:45;100199.31;;;5.80;100.00
18678;BME280;9469;51.114;13.914;2022-11-11T04:26:23;100198.97;;;5.77;100.00
18678;BME280;9469;51.114;13.914;2022-11-11T04:31:47;100188.41;;;5.77;100.00
18678;BME280;9469;51.114;13.914;2022-11-11T04:37:27;100183.69;;;5.79;100.00
18678;BME280;9469;51.114;13.914;2022-11-11T04:42:53;100180.19;;;5.62;100.00
18678;BME280;9469;51.114;13.914;2022-11-11T04:48:19;100183.75;;;5.56;100.00
18678;BME280;9469;51.114;13.914;2022-11-11T04:53:47;100177.44;;;5.57;100.00
18678;BME280;9469;51.114;13.914;2022-11-11T04:59:10;100157.94;;;5.58;100.00
18678;BME280;9469;51.114;13.914;2022-11-11T05:04:41;100161.94;;;5.60;100.00
18678;BME280;9469;51.114;13.914;2022-11-11T05:10:10;100176.25;;;5.76;100.00
18678;BME280;9469;51.114;13.914;2022-11-11T05:15:35;100172.72;;;5.59;100.00
18678;BME280;9469;51.114;13.914;2022-11-11T05:21:25;100167.97;;;5.72;100.00
18678;BME280;9469;51.114;13.914;2022-11-11T05:26:55;100176.97;;;5.71;100.00
18678;BME280;9469;51.114;13.914;2022-11-11T05:32:20;100171.69;;;5.71;100.00
18678;BME280;9469;51.114;13.914;2022-11-11T05:37:45;100185.75;;;6.00;100.00
18678;BME280;9469;51.114;13.914;2022-11-11T05:43:33;100180.94;;;5.97;100.00
18678;BME280;9469;51.114;13.914;2022-11-11T05:48:59;100184.75;;;5.78;100.00
18678;BME280;9469;51.114;13.914;2022-11-11T05:54:38;100190.28;;;5.65;100.00
18678;BME280;9469;51.114;13.914;2022-11-11T06:00:15;100189.59;;;5.58;100.00
18678;BME280;9469;51.114;13.914;2022-11-11T06:05:44;100193.38;;;5.73;100.00
18678;BME280;9469;51.114;13.914;2022-11-11T06:11:08;100179.69;;;5.88;100.00
18678;BME280;9469;51.114;13.914;2022-11-11T06:16:35;100176.28;;;6.16;100.00
18678;BME280;9469;51.114;13.914;2022-11-11T06:22:01;100192.91;;;5.76;100.00
18678;BME280;9469;51.114;13.914;2022-11-11T06:27:25;100211.84;;;5.62;100.00
18678;BME280;9469;51.114;13.914;2022-11-11T06:32:53;100199.63;;;6.07;100.00
18678;BME280;9469;51.114;13.914;2022-11-11T06:38:18;100198.34;;;6.21;100.00
18678;BME280;9469;51.114;13.914;2022-11-11T06:43:43;100191.25;;;6.10;100.00
18678;BME280;9469;51.114;13.914;2022-11-11T06:49:17;100207.53;;;6.19;100.00
18678;BME280;9469;51.114;13.914;2022-11-11T06:54:42;100205.69;;;6.19;100.00
18678;BME280;9469;51.114;13.914;2022-11-11T07:00:08;100194.50;;;6.29;100.00
18678;BME280;9469;51.114;13.914;2022-11-11T07:05:36;100204.16;;;6.51;100.00
18678;BME280;9469;51.114;13.914;2022-11-11T07:11:00;100210.59;;;6.56;100.00
18678;BME280;9469;51.114;13.914;2022-11-11T07:16:36;100223.06;;;6.43;100.00
18678;BME280;9469;51.114;13.914;2022-11-11T07:22:04;100233.34;;;6.85;100.00
18678;BME280;9469;51.114;13.914;2022-11-11T07:27:31;100235.19;;;7.17;100.00
18678;BME280;9469;51.114;13.914;2022-11-11T07:33:02;100251.00;;;7.29;100.00
18678;BME280;9469;51.114;13.914;2022-11-11T07:38:30;100260.69;;;7.57;100.00
18678;BME280;9469;51.114;13.914;2022-11-11T07:44:03;100259.44;;;7.81;100.00
18678;BME280;9469;51.114;13.914;2022-11-11T07:49:27;100269.50;;;8.01;100.00
18678;BME280;9469;51.114;13.914;2022-11-11T07:54:53;100281.31;;;8.53;100.00
18678;BME280;9469;51.114;13.914;2022-11-11T08:00:17;100286.59;;;8.48;100.00
18678;BME280;9469;51.114;13.914;2022-11-11T08:05:41;100293.34;;;8.60;100.00
18678;BME280;9469;51.114;13.914;2022-11-11T08:11:07;100294.91;;;8.56;100.00
18678;BME280;9469;51.114;13.914;2022-11-11T08:16:31;100295.97;;;8.82;100.00
18678;BME280;9469;51.114;13.914;2022-11-11T08:21:57;100295.72;;;9.10;100.00
18678;BME280;9469;51.114;13.914;2022-11-11T08:27:23;100299.22;;;9.16;100.00
18678;BME280;9469;51.114;13.914;2022-11-11T08:33:01;100301.09;;;9.15;100.00
18678;BME280;9469;51.114;13.914;2022-11-11T08:38:46;100293.13;;;9.15;100.00
18678;BME280;9469;51.114;13.914;2022-11-11T08:44:13;100291.09;;;9.27;100.00
18678;BME280;9469;51.114;13.914;2022-11-11T08:49:39;100286.00;;;9.58;100.00
18678;BME280;9469;51.114;13.914;2022-11-11T08:55:05;100303.41;;;9.75;100.00
18678;BME280;9469;51.114;13.914;2022-11-11T09:00:33;100298.22;;;9.95;100.00
18678;BME280;9469;51.114;13.914;2022-11-11T09:05:57;100305.00;;;10.18;100.00
18678;BME280;9469;51.114;13.914;2022-11-11T09:11:30;100303.81;;;10.46;100.00
18678;BME280;9469;51.114;13.914;2022-11-11T09:17:00;100314.06;;;10.89;100.00
18678;BME280;9469;51.114;13.914;2022-11-11T09:22:25;100319.19;;;11.31;100.00
18678;BME280;9469;51.114;13.914;2022-11-11T09:28:01;100326.13;;;11.62;100.00
18678;BME280;9469;51.114;13.914;2022-11-11T09:33:28;100319.72;;;11.58;100.00
18678;BME280;9469;51.114;13.914;2022-11-11T09:38:52;100315.19;;;11.89;99.91
18678;BME280;9469;51.114;13.914;2022-11-11T09:44:27;100327.44;;;11.65;100.00
18678;BME280;9469;51.114;13.914;2022-11-11T09:50:02;100325.59;;;11.65;99.51
18678;BME280;9469;51.114;13.914;2022-11-11T09:55:31;100320.81;;;11.67;99.32
18678;BME280;9469;51.114;13.914;2022-11-11T10:01:01;100326.63;;;11.99;97.74
18678;BME280;9469;51.114;13.914;2022-11-11T10:06:33;100318.94;;;11.83;98.09
18678;BME280;9469;51.114;13.914;2022-11-11T10:12:06;100314.59;;;12.81;94.36
18678;BME280;9469;51.114;13.914;2022-11-11T10:17:34;100302.13;;;13.78;90.52
18678;BME280;9469;51.114;13.914;2022-11-11T10:23:12;100317.19;;;13.68;88.74
18678;BME280;9469;51.114;13.914;2022-11-11T10:28:42;100316.94;;;13.70;88.53
18678;BME280;9469;51.114;13.914;2022-11-11T10:34:12;100302.97;;;13.44;89.03
18678;BME280;9469;51.114;13.914;2022-11-11T10:39:49;100320.16;;;13.33;90.45
18678;BME280;9469;51.114;13.914;2022-11-11T10:45:21;100313.69;;;13.73;90.33
18678;BME280;9469;51.114;13.914;2022-11-11T10:50:50;100326.56;;;13.66;90.80
18678;BME280;9469;51.114;13.914;2022-11-11T10:56:22;100333.88;;;13.55;88.56
18678;BME280;9469;51.114;13.914;2022-11-11T11:01:53;100323.00;;;14.33;86.12
18678;BME280;9469;51.114;13.914;2022-11-11T11:07:25;100322.59;;;14.16;85.57
18678;BME280;9469;51.114;13.914;2022-11-11T11:12:58;100329.78;;;13.68;91.51
18678;BME280;9469;51.114;13.914;2022-11-11T11:18:26;100322.03;;;13.66;92.41
18678;BME280;9469;51.114;13.914;2022-11-11T11:23:50;100316.59;;;14.29;89.56
18678;BME280;9469;51.114;13.914;2022-11-11T11:29:23;100318.09;;;15.20;79.17
18678;BME280;9469;51.114;13.914;2022-11-11T11:34:51;100315.47;;;15.33;77.37
18678;BME280;9469;51.114;13.914;2022-11-11T11:40:15;100311.31;;;15.59;74.71
18678;BME280;9469;51.114;13.914;2022-11-11T11:45:42;100298.97;;;16.04;72.75
18678;BME280;9469;51.114;13.914;2022-11-11T11:51:14;100297.88;;;16.32;71.14
18678;BME280;9469;51.114;13.914;2022-11-11T11:56:48;100301.88;;;16.35;70.15
18678;BME280;9469;51.114;13.914;2022-11-11T12:02:37;100290.03;;;16.22;70.49
18678;BME280;9469;51.114;13.914;2022-11-11T12:08:25;100290.41;;;16.02;71.58
18678;BME280;9469;51.114;13.914;2022-11-11T12:20:01;100285.03;;;16.02;69.47
18678;BME280;9469;51.114;13.914;2022-11-11T12:25:38;100264.13;;;15.72;70.17
18678;BME280;9469;51.114;13.914;2022-11-11T12:31:20;100267.59;;;15.59;71.55
18678;BME280;9469;51.114;13.914;2022-11-11T12:36:53;100272.41;;;15.25;72.77
18678;BME280;9469;51.114;13.914;2022-11-11T12:42:32;100268.28;;;15.51;71.96
18678;BME280;9469;51.114;13.914;2022-11-11T12:48:05;100273.84;;;15.54;71.76
18678;BME280;9469;51.114;13.914;2022-11-11T12:53:46;100267.59;;;15.59;71.81
18678;BME280;9469;51.114;13.914;2022-11-11T12:59:19;100273.72;;;15.27;73.65
18678;BME280;9469;51.114;13.914;2022-11-11T13:04:55;100272.03;;;15.31;73.46
18678;BME280;9469;51.114;13.914;2022-11-11T13:10:33;100269.47;;;15.58;73.33
18678;BME280;9469;51.114;13.914;2022-11-11T13:16:02;100272.84;;;15.50;72.69
18678;BME280;9469;51.114;13.914;2022-11-11T13:21:33;100272.75;;;15.55;72.86
18678;BME280;9469;51.114;13.914;2022-11-11T13:27:05;100276.31;;;15.51;73.80
18678;BME280;9469;51.114;13.914;2022-11-11T13:32:40;100285.28;;;15.60;75.48
18678;BME280;9469;51.114;13.914;2022-11-11T13:38:13;100294.09;;;14.72;83.37
18678;BME280;9469;51.114;13.914;2022-11-11T13:43:49;100297.03;;;14.52;87.42
18678;BME280;9469;51.114;13.914;2022-11-11T13:49:22;100290.41;;;14.68;88.15
18678;BME280;9469;51.114;13.914;2022-11-11T13:54:49;100283.63;;;14.76;87.54
18678;BME280;9469;51.114;13.914;2022-11-11T14:00:29;100280.84;;;14.62;88.42
18678;BME280;9469;51.114;13.914;2022-11-11T14:11:48;100278.94;;;14.20;90.16
18678;BME280;9469;51.114;13.914;2022-11-11T14:17:16;100288.63;;;13.93;89.80
18678;BME280;9469;51.114;13.914;2022-11-11T14:22:42;100279.50;;;13.70;90.91
18678;BME280;9469;51.114;13.914;2022-11-11T14:28:19;100292.72;;;13.56;92.26
18678;BME280;9469;51.114;13.914;2022-11-11T14:33:50;100294.50;;;13.32;93.11
18678;BME280;9469;51.114;13.914;2022-11-11T14:39:27;100289.63;;;13.39;93.29
18678;BME280;9469;51.114;13.914;2022-11-11T14:44:54;100290.34;;;13.16;94.96
18678;BME280;9469;51.114;13.914;2022-11-11T14:50:42;100290.16;;;13.41;94.19
18678;BME280;9469;51.114;13.914;2022-11-11T14:56:14;100285.41;;;13.67;92.91
18678;BME280;9469;51.114;13.914;2022-11-11T15:01:39;100287.47;;;13.41;93.78
18678;BME280;9469;51.114;13.914;2022-11-11T15:07:04;100288.25;;;13.13;94.56
18678;BME280;9469;51.114;13.914;2022-11-11T15:12:49;100292.09;;;12.92;94.61
18678;BME280;9469;51.114;13.914;2022-11-11T15:18:38;100297.53;;;12.23;98.05
18678;BME280;9469;51.114;13.914;2022-11-11T15:24:19;100303.72;;;11.98;100.00
18678;BME280;9469;51.114;13.914;2022-11-11T15:30:08;100295.75;;;11.78;100.00
18678;BME280;9469;51.114;13.914;2022-11-11T15:35:41;100304.00;;;11.57;100.00
18678;BME280;9469;51.114;13.914;2022-11-11T15:41:20;100301.09;;;11.53;100.00
18678;BME280;9469;51.114;13.914;2022-11-11T15:46:57;100312.25;;;11.65;100.00
18678;BME280;9469;51.114;13.914;2022-11-11T15:52:27;100306.94;;;11.60;100.00
18678;BME280;9469;51.114;13.914;2022-11-11T15:57:53;100312.22;;;11.00;100.00
18678;BME280;9469;51.114;13.914;2022-11-11T16:03:21;100315.34;;;10.66;100.00
18678;BME280;9469;51.114;13.914;2022-11-11T16:08:49;100312.59;;;10.46;100.00
18678;BME280;9469;51.114;13.914;2022-11-11T16:14:20;100315.16;;;10.21;100.00
18678;BME280;9469;51.114;13.914;2022-11-11T16:19:54;100332.81;;;10.00;100.00
18678;BME280;9469;51.114;13.914;2022-11-11T16:25:21;100327.88;;;10.14;100.00
18678;BME280;9469;51.114;13.914;2022-11-11T16:30:45;100318.66;;;9.90;100.00
18678;BME280;9469;51.114;13.914;2022-11-11T16:36:11;100318.34;;;9.81;100.00
18678;BME280;9469;51.114;13.914;2022-11-11T16:41:35;100320.66;;;9.68;100.00
18678;BME280;9469;51.114;13.914;2022-11-11T16:47:03;100332.66;;;9.44;100.00
18678;BME280;9469;51.114;13.914;2022-11-11T16:52:39;100328.38;;;9.37;100.00
18678;BME280;9469;51.114;13.914;2022-11-11T16:58:10;100335.47;;;9.32;100.00
18678;BME280;9469;51.114;13.914;2022-11-11T17:03:51;100334.31;;;9.23;100.00
18678;BME280;9469;51.114;13.914;2022-11-11T17:09:33;100340.16;;;9.20;100.00
18678;BME280;9469;51.114;13.914;2022-11-11T17:14:58;100340.31;;;9.08;100.00
18678;BME280;9469;51.114;13.914;2022-11-11T17:20:22;100344.53;;;9.04;100.00
18678;BME280;9469;51.114;13.914;2022-11-11T17:25:53;100350.28;;;8.75;100.00
18678;BME280;9469;51.114;13.914;2022-11-11T17:31:16;100341.50;;;9.22;100.00
18678;BME280;9469;51.114;13.914;2022-11-11T17:36:41;100340.78;;;9.05;100.00
18678;BME280;9469;51.114;13.914;2022-11-11T17:42:07;100344.88;;;8.91;100.00
18678;BME280;9469;51.114;13.914;2022-11-11T17:47:32;100335.88;;;8.92;100.00
18678;BME280;9469;51.114;13.914;2022-11-11T17:53:03;100341.31;;;9.02;100.00
18678;BME280;9469;51.114;13.914;2022-11-11T17:58:38;100339.63;;;8.96;100.00
18678;BME280;9469;51.114;13.914;2022-11-11T18:04:02;100347.09;;;8.73;100.00
18678;BME280;9469;51.114;13.914;2022-11-11T18:09:26;100350.78;;;8.72;100.00
18678;BME280;9469;51.114;13.914;2022-11-11T18:14:53;100358.44;;;8.68;100.00
18678;BME280;9469;51.114;13.914;2022-11-11T18:20:17;100358.59;;;8.23;100.00
18678;BME280;9469;51.114;13.914;2022-11-11T18:25:41;100358.00;;;8.16;100.00
18678;BME280;9469;51.114;13.914;2022-11-11T18:31:08;100361.69;;;8.32;100.00
18678;BME280;9469;51.114;13.914;2022-11-11T18:36:32;100367.00;;;7.98;100.00
18678;BME280;9469;51.114;13.914;2022-11-11T18:41:55;100366.22;;;7.81;100.00
18678;BME280;9469;51.114;13.914;2022-11-11T18:47:22;100368.63;;;8.00;100.00
18678;BME280;9469;51.114;13.914;2022-11-11T18:52:46;100367.75;;;7.77;100.00
18678;BME280;9469;51.114;13.914;2022-11-11T18:58:09;100366.22;;;7.98;100.00
18678;BME280;9469;51.114;13.914;2022-11-11T19:03:37;100369.50;;;7.88;100.00
18678;BME280;9469;51.114;13.914;2022-11-11T19:09:04;100369.28;;;7.73;100.00
18678;BME280;9469;51.114;13.914;2022-11-11T19:14:29;100384.53;;;7.66;100.00
18678;BME280;9469;51.114;13.914;2022-11-11T19:19:55;100385.09;;;7.68;100.00
18678;BME280;9469;51.114;13.914;2022-11-11T19:25:19;100385.16;;;7.57;100.00
18678;BME280;9469;51.114;13.914;2022-11-11T19:30:42;100392.38;;;7.61;100.00
18678;BME280;9469;51.114;13.914;2022-11-11T19:36:12;100382.97;;;7.54;100.00
18678;BME280;9469;51.114;13.914;2022-11-11T19:41:38;100393.47;;;7.49;100.00
18678;BME280;9469;51.114;13.914;2022-11-11T19:47:03;100383.44;;;7.34;100.00
18678;BME280;9469;51.114;13.914;2022-11-11T19:52:31;100394.91;;;7.23;100.00
18678;BME280;9469;51.114;13.914;2022-11-11T19:57:57;100387.31;;;7.15;100.00
18678;BME280;9469;51.114;13.914;2022-11-11T20:03:21;100385.16;;;7.12;100.00
18678;BME280;9469;51.114;13.914;2022-11-11T20:08:50;100388.75;;;7.06;100.00
18678;BME280;9469;51.114;13.914;2022-11-11T20:14:15;100398.56;;;7.22;100.00
18678;BME280;9469;51.114;13.914;2022-11-11T20:19:39;100412.47;;;7.57;100.00
18678;BME280;9469;51.114;13.914;2022-11-11T20:25:07;100402.50;;;7.19;100.00
18678;BME280;9469;51.114;13.914;2022-11-11T20:30:32;100416.63;;;7.25;100.00
18678;BME280;9469;51.114;13.914;2022-11-11T20:35:59;100426.44;;;7.13;100.00
18678;BME280;9469;51.114;13.914;2022-11-11T20:41:27;100440.53;;;7.02;100.00
18678;BME280;9469;51.114;13.914;2022-11-11T20:46:52;100428.81;;;6.98;100.00
18678;BME280;9469;51.114;13.914;2022-11-11T20:52:16;100429.28;;;6.95;100.00
18678;BME280;9469;51.114;13.914;2022-11-11T20:57:44;100428.06;;;6.63;100.00
18678;BME280;9469;51.114;13.914;2022-11-11T21:03:10;100441.47;;;6.96;100.00
18678;BME280;9469;51.114;13.914;2022-11-11T21:08:37;100428.13;;;6.91;100.00
18678;BME280;9469;51.114;13.914;2022-11-11T21:14:08;100444.13;;;6.96;100.00
18678;BME280;9469;51.114;13.914;2022-11-11T21:19:32;100432.84;;;7.00;100.00
18678;BME280;9469;51.114;13.914;2022-11-11T21:24:59;100426.44;;;6.85;100.00
18678;BME280;9469;51.114;13.914;2022-11-11T21:30:26;100433.81;;;6.71;100.00
18678;BME280;9469;51.114;13.914;2022-11-11T21:35:59;100440.94;;;6.71;100.00
18678;BME280;9469;51.114;13.914;2022-11-11T21:41:25;100435.56;;;6.54;100.00
18678;BME280;9469;51.114;13.914;2022-11-11T21:46:53;100436.72;;;6.46;100.00
18678;BME280;9469;51.114;13.914;2022-11-11T21:52:17;100420.06;;;6.58;100.00
18678;BME280;9469;51.114;13.914;2022-11-11T21:57:42;100429.25;;;6.43;100.00
18678;BME280;9469;51.114;13.914;2022-11-11T22:03:08;100433.28;;;6.58;100.00
18678;BME280;9469;51.114;13.914;2022-11-11T22:08:38;100433.97;;;6.41;100.00
18678;BME280;9469;51.114;13.914;2022-11-11T22:14:33;100425.22;;;6.41;100.00
18678;BME280;9469;51.114;13.914;2022-11-11T23:10:50;100419.44;;;5.86;100.00
18678;BME280;9469;51.114;13.914;2022-11-11T23:16:42;100415.44;;;5.95;100.00
18678;BME280;9469;51.114;13.914;2022-11-11T23:22:17;100413.28;;;6.04;100.00
18678;BME280;9469;51.114;13.914;2022-11-11T23:33:48;100427.09;;;6.17;100.00
18678;BME280;9469;51.114;13.914;2022-11-11T23:39:19;100419.69;;;5.85;100.00
18678;BME280;9469;51.114;13.914;2022-11-11T23:44:46;100421.59;;;5.77;100.00
18678;BME280;9469;51.114;13.914;2022-11-11T23:50:58;100431.81;;;5.74;100.00
18678;BME280;9469;51.114;13.914;2022-11-11T23:56:42;100414.03;;;5.69;100.00
